Schaupps, Nebraska
Current Conditions -  °F | °C
As of 7:53 AM on Tuesday 27 Jan 2015 (Local Time) from KODX Reporting Station
Clear Clear  
Wind Chill: -4°   Ceiling: Unl
Heat Index: -4°   Visibility: 10mi
Dew Point: -6°   Wind: 3mph
Humidity: 91%   Direction: 180°S
Pressure: 30.02"   Gusts: NA
Location:  41.3°N, 98.8143°W
Report Text: KODX 271353Z AUTO 18003KT 10SM CLR M04/M06 A3002 RMK AO2 SLP189 T10441056
Loading
Personal Weather Stations






























Interactive Weather Map New forecast layout! Learn more

10-Day Weather Forecast

Advertisements
Track Severe Weather on mobile